createdAt,value
2022-08-11T00:00:07.177Z,22.00
2022-08-11T00:01:16.427Z,22.10
2022-08-11T00:02:29.130Z,22.10
2022-08-11T00:03:42.321Z,22.10
2022-08-11T00:04:45.688Z,22.10
2022-08-11T00:05:51.759Z,22.10
2022-08-11T00:06:54.551Z,22.10
2022-08-11T00:07:58.274Z,22.10
2022-08-11T00:09:02.314Z,22.10
2022-08-11T00:10:04.746Z,22.10
2022-08-11T00:11:09.709Z,22.20
2022-08-11T00:12:18.370Z,22.20
2022-08-11T00:13:21.163Z,22.20
2022-08-11T00:14:36.890Z,22.20
2022-08-11T00:15:43.421Z,22.20
2022-08-11T00:16:54.779Z,22.20
2022-08-11T00:18:01.133Z,22.30
2022-08-11T00:19:04.303Z,22.30
2022-08-11T00:20:17.329Z,22.20
2022-08-11T00:22:02.856Z,22.20
2022-08-11T00:22:46.928Z,22.30
2022-08-11T00:23:58.268Z,22.30
2022-08-11T00:25:02.792Z,22.30
2022-08-11T00:26:07.981Z,22.30
2022-08-11T00:27:09.608Z,22.20
2022-08-11T00:28:30.829Z,22.20
2022-08-11T00:29:33.508Z,22.20
2022-08-11T00:30:41.129Z,22.20
2022-08-11T00:31:52.846Z,22.20
2022-08-11T00:32:59.043Z,22.20
2022-08-11T00:34:02.682Z,22.20
2022-08-11T00:35:53.931Z,22.20
2022-08-11T00:36:50.241Z,22.20
2022-08-11T00:37:54.419Z,22.20
2022-08-11T00:39:04.601Z,22.20
2022-08-11T00:40:18.568Z,22.10
2022-08-11T00:41:31.620Z,22.20
2022-08-11T00:43:10.667Z,22.20
2022-08-11T00:44:38.855Z,22.20
2022-08-11T00:45:46.800Z,22.20
2022-08-11T00:47:25.919Z,22.20
2022-08-11T00:48:41.382Z,22.10
2022-08-11T00:50:08.461Z,22.10
2022-08-11T00:51:24.075Z,22.10
2022-08-11T00:53:03.478Z,22.20
2022-08-11T00:54:36.587Z,22.10
2022-08-11T00:56:13.562Z,22.10
2022-08-11T00:57:52.504Z,22.10
2022-08-11T00:59:00.205Z,22.20
2022-08-11T01:00:15.874Z,22.20
2022-08-11T01:01:17.419Z,22.10
2022-08-11T01:02:41.171Z,22.10
2022-08-11T01:04:04.367Z,22.10
2022-08-11T01:05:18.201Z,22.10
2022-08-11T01:06:57.296Z,22.00
2022-08-11T01:08:28.597Z,22.00
2022-08-11T01:09:54.760Z,22.00
2022-08-11T01:11:24.793Z,22.10
2022-08-11T01:13:04.249Z,22.10
2022-08-11T01:14:26.868Z,22.10
2022-08-11T01:15:41.913Z,22.10
2022-08-11T01:17:36.037Z,22.10
2022-08-11T01:18:58.726Z,22.00
2022-08-11T01:20:46.492Z,22.00
2022-08-11T01:22:00.157Z,22.00
2022-08-11T01:23:17.432Z,22.00
2022-08-11T01:24:43.588Z,22.00
2022-08-11T01:26:16.264Z,22.00
2022-08-11T01:28:12.994Z,21.90
2022-08-11T01:29:17.766Z,21.90
2022-08-11T01:30:58.480Z,22.00
2022-08-11T01:32:15.322Z,22.00
2022-08-11T01:33:59.506Z,22.00
2022-08-11T01:35:21.077Z,21.90
2022-08-11T01:36:31.557Z,22.00
2022-08-11T01:38:03.019Z,22.00
2022-08-11T01:39:42.240Z,22.00
2022-08-11T01:41:03.259Z,22.00
2022-08-11T01:42:53.503Z,22.00
2022-08-11T01:44:20.925Z,22.00
2022-08-11T01:45:42.784Z,21.90
2022-08-11T01:46:50.711Z,21.90
2022-08-11T01:48:02.037Z,21.90
2022-08-11T01:49:59.681Z,21.90
2022-08-11T01:50:42.941Z,21.80
2022-08-11T01:52:15.387Z,21.80
2022-08-11T01:53:28.704Z,21.80
2022-08-11T01:54:49.341Z,21.90
2022-08-11T01:56:26.612Z,21.80
2022-08-11T01:58:03.108Z,21.80
2022-08-11T01:59:25.062Z,21.80
2022-08-11T02:00:30.811Z,21.90
2022-08-11T02:01:36.712Z,21.80
2022-08-11T02:02:53.961Z,21.90
2022-08-11T02:04:34.506Z,21.80
2022-08-11T02:06:01.756Z,21.80
2022-08-11T02:07:20.766Z,21.70
2022-08-11T02:09:03.956Z,21.70
2022-08-11T02:10:39.200Z,21.60
2022-08-11T02:11:42.090Z,21.60
2022-08-11T02:12:52.705Z,21.60
2022-08-11T02:14:12.016Z,21.60
2022-08-11T02:15:39.505Z,21.60
2022-08-11T02:17:12.695Z,21.50
2022-08-11T02:18:55.810Z,21.50
2022-08-11T02:20:43.892Z,21.70
2022-08-11T02:22:20.454Z,21.60
2022-08-11T02:24:04.556Z,21.50
2022-08-11T02:25:04.519Z,21.50
2022-08-11T02:26:16.797Z,21.50
2022-08-11T02:27:24.926Z,21.50
2022-08-11T02:28:49.876Z,21.50
2022-08-11T02:30:20.292Z,21.40
2022-08-11T02:32:23.864Z,21.40
2022-08-11T02:33:24.650Z,21.40
2022-08-11T02:34:40.993Z,21.40
2022-08-11T02:36:08.554Z,21.40
2022-08-11T02:37:27.381Z,21.40
2022-08-11T02:38:45.393Z,21.40
2022-08-11T02:39:54.082Z,21.30
2022-08-11T02:41:41.727Z,21.40
2022-08-11T02:42:46.358Z,21.30
2022-08-11T02:44:28.445Z,21.40
2022-08-11T02:45:54.794Z,21.30
2022-08-11T02:47:14.527Z,21.40
2022-08-11T02:48:38.232Z,21.30
2022-08-11T02:50:06.270Z,21.30
2022-08-11T02:51:42.683Z,21.40
2022-08-11T02:52:59.073Z,21.30
2022-08-11T02:54:21.324Z,21.30
2022-08-11T02:55:57.205Z,21.30
2022-08-11T02:57:21.173Z,21.20
2022-08-11T02:59:08.357Z,21.20
2022-08-11T03:00:13.861Z,21.20
2022-08-11T03:01:23.838Z,21.20
2022-08-11T03:02:55.129Z,21.20
2022-08-11T03:04:18.455Z,21.20
2022-08-11T03:05:52.641Z,21.10
2022-08-11T03:07:28.912Z,21.20
2022-08-11T03:08:53.725Z,21.10
2022-08-11T03:10:34.185Z,21.10
2022-08-11T03:12:03.080Z,21.10
2022-08-11T03:13:41.287Z,21.00
2022-08-11T03:15:15.485Z,21.00
2022-08-11T03:16:46.856Z,21.00
2022-08-11T03:18:14.101Z,21.00
2022-08-11T03:19:24.697Z,21.00
2022-08-11T03:20:26.171Z,20.90
2022-08-11T03:22:06.565Z,20.90
2022-08-11T03:23:19.332Z,20.90
2022-08-11T03:24:29.228Z,20.90
2022-08-11T03:25:54.562Z,21.00
2022-08-11T03:27:05.573Z,21.00
2022-08-11T03:28:09.718Z,21.00
2022-08-11T03:29:44.025Z,21.00
2022-08-11T03:31:04.246Z,21.00
2022-08-11T03:32:27.310Z,21.00
2022-08-11T03:34:04.133Z,21.10
2022-08-11T03:35:21.136Z,21.10
2022-08-11T03:37:16.362Z,21.10
2022-08-11T03:38:30.534Z,21.00
2022-08-11T03:39:56.328Z,21.00
2022-08-11T03:42:02.241Z,20.90
2022-08-11T03:43:03.438Z,20.90
2022-08-11T03:44:20.697Z,20.90
2022-08-11T03:45:25.589Z,20.90
2022-08-11T03:46:38.243Z,20.90
2022-08-11T03:48:08.117Z,20.80
2022-08-11T03:49:28.641Z,20.80
2022-08-11T03:50:49.797Z,20.80
2022-08-11T03:51:58.143Z,20.80
2022-08-11T03:53:36.972Z,20.80
2022-08-11T03:54:41.177Z,20.80
2022-08-11T03:56:20.090Z,20.80
2022-08-11T03:57:36.757Z,20.70
2022-08-11T03:58:49.839Z,20.70
2022-08-11T04:00:14.976Z,20.80
2022-08-11T04:01:38.533Z,20.70
2022-08-11T04:03:17.561Z,20.70
2022-08-11T04:04:45.424Z,20.70
2022-08-11T04:06:17.731Z,20.70
2022-08-11T04:07:34.620Z,20.70
2022-08-11T04:09:07.529Z,20.70
2022-08-11T04:10:33.574Z,20.70
2022-08-11T04:11:51.365Z,20.60
2022-08-11T04:13:11.855Z,20.60
2022-08-11T04:15:00.800Z,20.60
2022-08-11T04:16:26.855Z,20.60
2022-08-11T04:17:46.610Z,20.60
2022-08-11T04:19:17.687Z,20.50
2022-08-11T04:20:42.877Z,20.70
2022-08-11T04:22:17.203Z,20.60
2022-08-11T04:24:35.873Z,20.70
2022-08-11T04:25:05.716Z,20.60
2022-08-11T04:27:05.014Z,20.60
2022-08-11T04:28:28.384Z,20.50
2022-08-11T04:30:03.961Z,20.50
2022-08-11T04:31:52.083Z,20.50
2022-08-11T04:33:11.698Z,20.60
2022-08-11T04:34:37.115Z,20.60
2022-08-11T04:36:47.186Z,20.60
2022-08-11T04:38:09.868Z,20.60
2022-08-11T04:39:54.030Z,20.70
2022-08-11T04:42:11.252Z,20.70
2022-08-11T04:44:05.526Z,20.70
2022-08-11T04:45:34.216Z,20.70
2022-08-11T04:47:03.170Z,20.60
2022-08-11T04:49:00.220Z,20.60
2022-08-11T04:51:08.995Z,20.60
2022-08-11T04:53:13.949Z,20.60
2022-08-11T04:54:50.346Z,20.70
2022-08-11T04:56:35.209Z,20.70
2022-08-11T04:58:21.120Z,20.70
2022-08-11T05:00:07.571Z,20.60
2022-08-11T05:01:42.681Z,20.60
2022-08-11T05:02:50.277Z,20.70
2022-08-11T05:04:32.933Z,20.70
2022-08-11T05:06:01.373Z,20.70
2022-08-11T05:07:28.977Z,20.70
2022-08-11T05:09:07.344Z,20.80
2022-08-11T05:10:43.354Z,20.80
2022-08-11T05:12:03.068Z,20.80
2022-08-11T05:13:27.710Z,20.80
2022-08-11T05:14:59.604Z,20.70
2022-08-11T05:16:28.347Z,20.70
2022-08-11T05:18:15.645Z,20.70
2022-08-11T05:19:38.461Z,20.70
2022-08-11T05:21:05.872Z,20.70
2022-08-11T05:22:30.367Z,20.80
2022-08-11T05:23:53.352Z,20.90
2022-08-11T05:26:45.531Z,20.90
2022-08-11T05:27:13.578Z,20.90
2022-08-11T05:28:40.318Z,20.80
2022-08-11T05:30:00.693Z,20.90
2022-08-11T05:31:32.280Z,20.90
2022-08-11T05:33:02.016Z,20.90
2022-08-11T05:34:32.053Z,20.90
2022-08-11T05:36:02.435Z,21.00
2022-08-11T05:37:26.182Z,21.10
2022-08-11T05:38:51.605Z,21.00
2022-08-11T05:40:18.402Z,21.10
2022-08-11T05:41:42.106Z,21.10
2022-08-11T05:43:14.884Z,21.10
2022-08-11T05:44:39.934Z,21.20
2022-08-11T05:46:03.505Z,21.30
2022-08-11T05:47:24.919Z,21.40
2022-08-11T05:48:52.553Z,21.40
2022-08-11T05:50:15.106Z,21.40
2022-08-11T05:51:35.883Z,21.40
2022-08-11T05:52:57.678Z,21.40
2022-08-11T05:54:29.088Z,21.50
2022-08-11T05:56:01.861Z,21.50
2022-08-11T05:57:05.664Z,21.60
2022-08-11T05:58:10.272Z,21.70
2022-08-11T05:59:17.027Z,21.80
2022-08-11T06:00:19.575Z,21.80
2022-08-11T06:01:33.737Z,21.80
2022-08-11T06:02:43.778Z,21.80
2022-08-11T06:04:08.452Z,21.80
2022-08-11T06:05:11.371Z,21.80
2022-08-11T06:06:13.255Z,21.90
2022-08-11T06:07:17.655Z,21.90
2022-08-11T06:08:27.585Z,22.00
2022-08-11T06:09:32.788Z,22.10
2022-08-11T06:10:37.474Z,22.10
2022-08-11T06:11:43.928Z,22.10
2022-08-11T06:12:56.294Z,22.10
2022-08-11T06:13:58.403Z,22.20
2022-08-11T06:15:05.870Z,22.20
2022-08-11T06:16:07.996Z,22.30
2022-08-11T06:17:10.861Z,22.40
2022-08-11T06:18:14.012Z,22.40
2022-08-11T06:19:17.198Z,22.40
2022-08-11T06:20:20.225Z,22.50
2022-08-11T06:21:22.834Z,22.50
2022-08-11T06:22:25.927Z,22.50
2022-08-11T06:23:33.364Z,22.60
2022-08-11T06:24:41.096Z,22.60
2022-08-11T06:25:42.765Z,22.60
2022-08-11T06:27:11.732Z,22.70
2022-08-11T06:28:20.602Z,22.70
2022-08-11T06:29:37.573Z,22.80
2022-08-11T06:30:46.786Z,22.80
2022-08-11T06:31:58.642Z,22.80
2022-08-11T06:33:01.607Z,22.90
2022-08-11T06:34:27.466Z,22.90
2022-08-11T06:35:50.401Z,23.00
2022-08-11T06:36:59.769Z,23.10
2022-08-11T06:38:16.156Z,23.10
2022-08-11T06:39:43.714Z,23.10
2022-08-11T06:41:15.189Z,23.10
2022-08-11T06:42:53.356Z,23.20
2022-08-11T06:44:10.356Z,23.30
2022-08-11T06:45:26.865Z,23.40
2022-08-11T06:46:37.180Z,23.50
2022-08-11T06:47:49.452Z,23.50
2022-08-11T06:48:53.579Z,23.60
2022-08-11T06:50:18.018Z,23.60
2022-08-11T06:51:20.810Z,23.60
2022-08-11T06:52:36.370Z,23.70
2022-08-11T06:54:05.586Z,23.80
2022-08-11T06:55:58.190Z,23.80
2022-08-11T06:57:30.354Z,23.80
2022-08-11T06:58:57.483Z,24.00
2022-08-11T07:00:20.030Z,24.00
2022-08-11T07:01:52.032Z,24.00
2022-08-11T07:03:11.449Z,24.00
2022-08-11T07:04:18.407Z,24.10
2022-08-11T07:05:25.589Z,24.20
2022-08-11T07:07:08.659Z,24.20
2022-08-11T07:08:54.222Z,24.30
2022-08-11T07:10:34.154Z,24.30
2022-08-11T07:12:10.407Z,24.40
2022-08-11T07:13:44.434Z,24.50
2022-08-11T07:15:10.930Z,24.50
2022-08-11T07:16:18.683Z,24.60
2022-08-11T07:17:27.321Z,24.80
2022-08-11T07:18:53.220Z,24.80
2022-08-11T07:20:16.948Z,24.80
2022-08-11T07:22:02.631Z,24.90
2022-08-11T07:23:28.090Z,24.90
2022-08-11T07:24:59.437Z,24.90
2022-08-11T07:26:25.777Z,24.90
2022-08-11T07:28:09.307Z,24.80
2022-08-11T07:29:14.190Z,24.90
2022-08-11T07:30:18.362Z,24.80
2022-08-11T07:31:43.817Z,24.60
2022-08-11T07:32:56.030Z,24.50
2022-08-11T07:34:15.883Z,24.50
2022-08-11T07:35:29.812Z,24.50
2022-08-11T07:36:31.940Z,24.60
2022-08-11T07:37:35.194Z,24.70
2022-08-11T07:38:51.307Z,24.80
2022-08-11T07:39:54.122Z,24.80
2022-08-11T07:40:59.108Z,24.90
2022-08-11T07:42:07.090Z,24.80
2022-08-11T07:43:09.689Z,24.70
2022-08-11T07:44:12.670Z,24.60
2022-08-11T07:45:33.289Z,24.60
2022-08-11T07:47:00.924Z,24.50
2022-08-11T07:48:22.966Z,24.30
2022-08-11T07:49:43.770Z,24.20
2022-08-11T07:51:05.361Z,24.30
2022-08-11T07:52:26.236Z,24.20
2022-08-11T07:53:30.532Z,24.00
2022-08-11T07:54:33.552Z,24.00
2022-08-11T07:55:50.145Z,23.90
2022-08-11T07:57:09.475Z,24.00
2022-08-11T07:58:45.448Z,24.10
2022-08-11T08:00:15.189Z,24.10
2022-08-11T08:01:44.463Z,24.20
2022-08-11T08:03:04.697Z,24.10
2022-08-11T08:04:27.022Z,23.90
2022-08-11T08:05:48.456Z,23.90
2022-08-11T08:07:09.894Z,23.90
2022-08-11T08:08:29.996Z,23.80
2022-08-11T08:09:54.212Z,23.80
2022-08-11T08:11:15.865Z,23.80
2022-08-11T08:12:40.811Z,23.80
2022-08-11T08:14:02.452Z,23.90
2022-08-11T08:15:26.985Z,23.80
2022-08-11T08:16:49.686Z,23.70
2022-08-11T08:18:21.037Z,23.70
2022-08-11T08:19:17.122Z,23.80
2022-08-11T08:20:21.778Z,23.90
2022-08-11T08:21:23.653Z,23.90
2022-08-11T08:22:37.702Z,23.90
2022-08-11T08:23:44.260Z,24.00
2022-08-11T08:24:47.928Z,24.10
2022-08-11T08:25:52.559Z,24.10
2022-08-11T08:27:00.161Z,24.10
2022-08-11T08:28:11.219Z,24.10
2022-08-11T08:29:32.106Z,24.10
2022-08-11T08:30:50.580Z,24.00
2022-08-11T08:31:53.499Z,24.00
2022-08-11T08:32:57.763Z,24.00
2022-08-11T08:33:59.471Z,24.10
2022-08-11T08:35:03.476Z,24.20
2022-08-11T08:36:12.002Z,24.20
2022-08-11T08:37:45.383Z,24.20
2022-08-11T08:38:58.422Z,24.20
2022-08-11T08:40:00.118Z,24.30
2022-08-11T08:41:02.750Z,24.30
2022-08-11T08:42:11.669Z,24.30
2022-08-11T08:43:17.400Z,24.30
2022-08-11T08:44:37.777Z,24.30
2022-08-11T08:45:43.011Z,24.40
2022-08-11T08:46:47.965Z,24.10
2022-08-11T08:48:01.676Z,24.10
2022-08-11T08:49:04.578Z,24.10
2022-08-11T08:50:16.803Z,24.00
2022-08-11T08:52:01.643Z,24.00
2022-08-11T08:53:04.084Z,24.00
2022-08-11T08:54:10.027Z,24.00
2022-08-11T08:55:17.950Z,24.10
2022-08-11T08:56:27.607Z,24.10
2022-08-11T08:57:31.847Z,24.20
2022-08-11T08:58:42.598Z,24.40
2022-08-11T08:59:49.551Z,24.30
2022-08-11T09:00:54.954Z,24.30
2022-08-11T09:02:01.030Z,24.40
2022-08-11T09:03:22.938Z,24.30
2022-08-11T09:04:26.023Z,24.40
2022-08-11T09:05:27.666Z,24.40
2022-08-11T09:06:32.077Z,24.30
2022-08-11T09:07:39.595Z,24.40
2022-08-11T09:08:42.355Z,24.50
2022-08-11T09:09:48.176Z,24.60
2022-08-11T09:11:13.763Z,24.60
2022-08-11T09:12:38.568Z,24.60
2022-08-11T09:13:44.348Z,24.70
2022-08-11T09:15:03.662Z,24.80
2022-08-11T09:16:10.055Z,24.90
2022-08-11T09:17:12.235Z,24.90
2022-08-11T09:18:13.884Z,25.10
2022-08-11T09:19:18.432Z,25.10
2022-08-11T09:20:22.169Z,25.10
2022-08-11T09:21:46.511Z,25.20
2022-08-11T09:24:07.315Z,25.20
2022-08-11T09:24:48.533Z,25.20
2022-08-11T09:26:11.737Z,25.20
2022-08-11T09:27:14.355Z,25.20
2022-08-11T09:28:17.352Z,25.20
2022-08-11T09:29:19.063Z,25.30
2022-08-11T09:30:21.712Z,25.30
2022-08-11T09:31:23.583Z,25.20
2022-08-11T09:32:28.829Z,25.30
2022-08-11T09:33:32.011Z,25.30
2022-08-11T09:34:36.723Z,25.40
2022-08-11T09:35:39.121Z,25.60
2022-08-11T09:37:01.844Z,25.70
2022-08-11T09:38:24.483Z,25.80
2022-08-11T09:39:46.878Z,25.90
2022-08-11T09:40:56.272Z,25.80
2022-08-11T09:42:03.352Z,25.90
2022-08-11T09:43:29.043Z,25.80
2022-08-11T09:44:48.758Z,25.70
2022-08-11T09:45:53.516Z,25.70
2022-08-11T09:46:59.425Z,25.80
2022-08-11T09:48:02.104Z,25.80
2022-08-11T09:49:05.199Z,25.90
2022-08-11T09:50:09.015Z,26.10
2022-08-11T09:51:12.869Z,26.20
2022-08-11T09:52:15.766Z,26.40
2022-08-11T09:53:35.778Z,26.40
2022-08-11T09:54:41.666Z,26.50
2022-08-11T09:55:46.323Z,26.50
2022-08-11T09:57:06.539Z,26.60
2022-08-11T09:58:33.865Z,26.60
2022-08-11T09:59:41.419Z,26.80
2022-08-11T10:00:44.913Z,26.80
2022-08-11T10:01:49.631Z,26.90
2022-08-11T10:02:54.536Z,26.90
2022-08-11T10:04:05.671Z,26.80
2022-08-11T10:05:27.030Z,26.90
2022-08-11T10:06:53.970Z,27.00
2022-08-11T10:07:57.136Z,27.00
2022-08-11T10:08:58.935Z,27.00
2022-08-11T10:10:02.699Z,27.10
2022-08-11T10:11:09.355Z,27.10
2022-08-11T10:12:18.405Z,27.10
2022-08-11T10:14:03.774Z,27.10
2022-08-11T10:15:06.845Z,27.20
2022-08-11T10:16:15.174Z,27.20
2022-08-11T10:17:21.796Z,27.20
2022-08-11T10:18:53.388Z,27.20
2022-08-11T10:20:04.172Z,27.30
2022-08-11T10:21:28.595Z,27.30
2022-08-11T10:22:49.811Z,27.40
2022-08-11T10:24:11.879Z,27.60
2022-08-11T10:25:34.243Z,27.60
2022-08-11T10:26:54.345Z,27.70
2022-08-11T10:28:28.379Z,27.70
2022-08-11T10:29:49.877Z,27.60
2022-08-11T10:31:12.743Z,27.70
2022-08-11T10:32:57.879Z,27.80
2022-08-11T10:34:05.815Z,27.80
2022-08-11T10:35:12.669Z,28.00
2022-08-11T10:36:16.739Z,27.90
2022-08-11T10:37:22.679Z,27.90
2022-08-11T10:38:25.699Z,28.00
2022-08-11T10:39:27.329Z,28.10
2022-08-11T10:40:29.503Z,28.30
2022-08-11T10:42:06.882Z,28.40
2022-08-11T10:43:14.268Z,28.40
2022-08-11T10:44:16.984Z,28.40
2022-08-11T10:45:38.347Z,28.50
2022-08-11T10:46:59.259Z,28.60
2022-08-11T10:48:01.997Z,28.60
2022-08-11T10:49:03.731Z,28.60
2022-08-11T10:50:31.906Z,28.60
2022-08-11T10:51:53.761Z,28.70
2022-08-11T10:53:16.434Z,28.80
2022-08-11T10:54:36.788Z,29.00
2022-08-11T10:55:58.640Z,29.10
2022-08-11T10:57:19.767Z,29.10
2022-08-11T10:58:41.829Z,29.00
2022-08-11T10:59:44.751Z,28.90
2022-08-11T11:00:46.457Z,28.90
2022-08-11T11:01:48.352Z,28.80
2022-08-11T11:03:21.892Z,28.80
2022-08-11T11:04:34.142Z,28.90
2022-08-11T11:05:39.190Z,29.00
2022-08-11T11:07:16.884Z,29.00
2022-08-11T11:08:44.573Z,28.90
2022-08-11T11:09:54.262Z,29.10
2022-08-11T11:10:56.817Z,29.10
2022-08-11T11:12:23.619Z,29.20
2022-08-11T11:13:55.069Z,29.10
2022-08-11T11:15:17.958Z,29.20
2022-08-11T11:16:39.818Z,29.30
2022-08-11T11:17:57.575Z,29.50
2022-08-11T11:19:04.074Z,29.50
2022-08-11T11:20:07.903Z,29.50
2022-08-11T11:21:20.565Z,29.40
2022-08-11T11:22:41.174Z,29.30
2022-08-11T11:24:13.455Z,29.50
2022-08-11T11:25:30.735Z,29.60
2022-08-11T11:26:52.976Z,29.50
2022-08-11T11:28:29.413Z,29.40
2022-08-11T11:29:33.942Z,29.30
2022-08-11T11:30:51.495Z,29.40
2022-08-11T11:32:14.563Z,29.40
2022-08-11T11:34:06.948Z,29.50
2022-08-11T11:35:26.771Z,29.50
2022-08-11T11:37:03.742Z,29.40
2022-08-11T11:38:14.107Z,29.50
2022-08-11T11:39:24.688Z,29.70
2022-08-11T11:40:31.469Z,29.70
2022-08-11T11:41:34.487Z,29.70
2022-08-11T11:42:36.647Z,29.70
2022-08-11T11:43:38.601Z,29.70
2022-08-11T11:44:44.539Z,29.80
2022-08-11T11:45:46.471Z,29.80
2022-08-11T11:46:48.554Z,30.00
2022-08-11T11:47:52.540Z,30.00
2022-08-11T11:48:56.815Z,30.00
2022-08-11T11:49:59.070Z,30.10
2022-08-11T11:51:01.581Z,30.10
2022-08-11T11:52:03.683Z,30.00
2022-08-11T11:53:10.106Z,30.10
2022-08-11T11:54:13.956Z,30.10
2022-08-11T11:55:15.774Z,30.10
2022-08-11T11:56:17.967Z,30.10
2022-08-11T11:57:40.243Z,30.10
2022-08-11T11:59:00.948Z,30.10
2022-08-11T12:00:24.273Z,30.10
2022-08-11T12:01:35.543Z,30.10
2022-08-11T12:02:49.790Z,30.20
2022-08-11T12:03:54.250Z,30.20
2022-08-11T12:04:56.359Z,30.30
2022-08-11T12:05:58.634Z,30.40
2022-08-11T12:07:18.882Z,30.40
2022-08-11T12:08:25.846Z,30.30
2022-08-11T12:09:29.657Z,30.40
2022-08-11T12:10:32.420Z,30.40
2022-08-11T12:11:52.901Z,30.60
2022-08-11T12:13:14.192Z,30.60
2022-08-11T12:14:20.806Z,30.60
2022-08-11T12:16:04.425Z,30.70
2022-08-11T12:16:46.441Z,30.80
2022-08-11T12:17:52.415Z,30.80
2022-08-11T12:18:59.817Z,30.80
2022-08-11T12:20:03.212Z,30.80
2022-08-11T12:21:06.115Z,30.80
2022-08-11T12:22:26.396Z,30.70
2022-08-11T12:23:47.876Z,30.70
2022-08-11T12:25:08.233Z,30.80
2022-08-11T12:26:29.137Z,30.90
2022-08-11T12:27:31.648Z,31.00
2022-08-11T12:28:34.011Z,31.10
2022-08-11T12:29:36.277Z,31.20
2022-08-11T12:31:45.556Z,31.20
2022-08-11T12:32:47.804Z,31.20
2022-08-11T12:33:50.682Z,31.30
2022-08-11T12:34:52.793Z,31.30
2022-08-11T12:36:01.097Z,31.20
2022-08-11T12:37:06.892Z,31.30
2022-08-11T12:38:12.623Z,31.20
2022-08-11T12:39:24.080Z,31.30
2022-08-11T12:41:17.385Z,31.20
2022-08-11T12:42:39.063Z,31.20
2022-08-11T12:44:03.806Z,31.30
2022-08-11T12:45:27.973Z,31.20
2022-08-11T12:46:37.834Z,31.30
2022-08-11T12:48:42.524Z,31.30
2022-08-11T12:49:45.364Z,31.30
2022-08-11T12:51:19.908Z,31.20
2022-08-11T12:52:34.516Z,31.10
2022-08-11T12:53:40.498Z,31.20
2022-08-11T12:55:13.450Z,31.20
2022-08-11T12:56:35.167Z,31.10
2022-08-11T12:58:03.697Z,31.20
2022-08-11T12:59:26.548Z,31.20
2022-08-11T13:00:49.866Z,31.20
2022-08-11T13:02:10.270Z,31.20
2022-08-11T13:03:32.689Z,31.20
2022-08-11T13:04:53.474Z,31.10
2022-08-11T13:05:58.777Z,31.00
2022-08-11T13:07:03.208Z,31.10
2022-08-11T13:08:06.863Z,31.20
2022-08-11T13:09:11.623Z,31.30
2022-08-11T13:10:35.762Z,31.40
2022-08-11T13:11:59.916Z,31.50
2022-08-11T13:13:03.049Z,31.60
2022-08-11T13:14:06.604Z,31.60
2022-08-11T13:15:10.389Z,31.70
2022-08-11T13:16:12.687Z,31.60
2022-08-11T13:17:44.165Z,31.70
2022-08-11T13:18:46.770Z,31.70
2022-08-11T13:19:49.841Z,31.70
2022-08-11T13:20:56.094Z,31.60
2022-08-11T13:21:58.592Z,31.60
2022-08-11T13:23:01.742Z,31.60
2022-08-11T13:24:03.869Z,31.60
2022-08-11T13:25:06.864Z,31.70
2022-08-11T13:26:08.912Z,31.80
2022-08-11T13:27:15.225Z,31.90
2022-08-11T13:28:19.808Z,31.90
2022-08-11T13:29:24.299Z,32.00
2022-08-11T13:30:47.893Z,32.00
2022-08-11T13:31:51.038Z,32.00
2022-08-11T13:32:53.108Z,32.10
2022-08-11T13:33:55.024Z,32.10
2022-08-11T13:34:57.601Z,32.20
2022-08-11T13:36:00.020Z,32.20
2022-08-11T13:37:05.413Z,32.20
2022-08-11T13:38:18.592Z,32.30
2022-08-11T13:39:26.068Z,32.20
2022-08-11T13:40:45.686Z,32.30
2022-08-11T13:41:50.856Z,32.20
2022-08-11T13:42:53.256Z,32.20
2022-08-11T13:43:56.010Z,32.20
2022-08-11T13:44:58.723Z,32.20
2022-08-11T13:46:18.933Z,32.20
2022-08-11T13:47:23.649Z,32.10
2022-08-11T13:48:25.470Z,32.00
2022-08-11T13:49:27.883Z,32.10
2022-08-11T13:50:48.311Z,32.10
2022-08-11T13:51:50.718Z,32.00
2022-08-11T13:52:53.398Z,32.10
2022-08-11T13:53:57.903Z,32.20
2022-08-11T13:55:04.691Z,32.10
2022-08-11T13:56:06.617Z,32.00
2022-08-11T13:57:13.615Z,31.90
2022-08-11T13:58:39.670Z,32.00
2022-08-11T13:59:52.336Z,32.00
2022-08-11T14:00:55.175Z,32.20
2022-08-11T14:02:22.252Z,32.10
2022-08-11T14:03:27.999Z,32.10
2022-08-11T14:04:57.852Z,32.10
2022-08-11T14:06:03.547Z,32.20
2022-08-11T14:07:08.866Z,32.20
2022-08-11T14:08:32.544Z,32.30
2022-08-11T14:09:39.907Z,32.30
2022-08-11T14:10:42.751Z,32.20
2022-08-11T14:12:21.201Z,32.10
2022-08-11T14:13:42.556Z,32.10
2022-08-11T14:14:56.409Z,32.00
2022-08-11T14:16:04.977Z,32.20
2022-08-11T14:17:09.101Z,32.20
2022-08-11T14:18:29.045Z,32.10
2022-08-11T14:19:34.937Z,32.10
2022-08-11T14:20:59.116Z,32.20
2022-08-11T14:22:08.662Z,32.20
2022-08-11T14:23:14.775Z,32.20
2022-08-11T14:24:17.825Z,32.20
2022-08-11T14:25:19.486Z,32.30
2022-08-11T14:26:29.089Z,32.30
2022-08-11T14:28:15.489Z,32.30
2022-08-11T14:29:14.551Z,32.10
2022-08-11T14:30:34.964Z,32.10
2022-08-11T14:31:40.548Z,32.00
2022-08-11T14:32:53.052Z,32.10
2022-08-11T14:34:02.760Z,32.10
2022-08-11T14:35:05.000Z,32.20
2022-08-11T14:36:09.310Z,32.20
2022-08-11T14:37:30.387Z,32.30
2022-08-11T14:38:34.652Z,32.30
2022-08-11T14:39:43.827Z,32.30
2022-08-11T14:41:05.824Z,32.40
2022-08-11T14:42:27.851Z,32.40
2022-08-11T14:44:12.559Z,32.30
2022-08-11T14:45:57.809Z,32.40
2022-08-11T14:47:23.314Z,32.50
2022-08-11T14:48:27.189Z,32.60
2022-08-11T14:49:29.980Z,32.60
2022-08-11T14:50:35.066Z,32.60
2022-08-11T14:51:36.973Z,32.50
2022-08-11T14:52:43.475Z,32.50
2022-08-11T14:53:58.281Z,32.50
2022-08-11T14:55:20.860Z,32.60
2022-08-11T14:56:37.931Z,32.50
2022-08-11T14:57:55.946Z,32.60
2022-08-11T14:58:59.636Z,32.60
2022-08-11T15:00:03.817Z,32.70
2022-08-11T15:01:26.139Z,32.70
2022-08-11T15:02:47.459Z,32.80
2022-08-11T15:04:33.930Z,32.80
2022-08-11T15:05:15.186Z,33.00
2022-08-11T15:06:16.990Z,33.20
2022-08-11T15:07:25.459Z,33.30
2022-08-11T15:08:48.991Z,33.50
2022-08-11T15:10:19.611Z,33.60
2022-08-11T15:11:33.010Z,33.80
2022-08-11T15:12:36.306Z,34.10
2022-08-11T15:13:39.005Z,34.20
2022-08-11T15:15:00.335Z,34.00
2022-08-11T15:16:20.568Z,34.00
2022-08-11T15:17:23.079Z,34.00
2022-08-11T15:18:32.368Z,34.00
2022-08-11T15:19:40.610Z,34.20
2022-08-11T15:21:02.521Z,34.30
2022-08-11T15:22:27.788Z,34.40
2022-08-11T15:23:49.466Z,34.40
2022-08-11T15:24:51.342Z,34.40
2022-08-11T15:26:06.315Z,34.60
2022-08-11T15:27:40.127Z,34.80
2022-08-11T15:29:05.640Z,35.10
2022-08-11T15:30:32.859Z,35.20
2022-08-11T15:31:44.281Z,34.60
2022-08-11T15:33:12.397Z,34.40
2022-08-11T15:34:36.228Z,34.00
2022-08-11T15:35:57.216Z,33.60
2022-08-11T15:37:21.396Z,33.50
2022-08-11T15:38:25.376Z,33.40
2022-08-11T15:39:58.636Z,33.30
2022-08-11T15:41:20.228Z,33.20
2022-08-11T15:43:00.294Z,33.10
2022-08-11T15:44:44.466Z,33.00
2022-08-11T15:45:52.207Z,32.80
2022-08-11T15:46:58.187Z,32.60
2022-08-11T15:48:10.563Z,32.40
2022-08-11T15:49:23.889Z,32.30
2022-08-11T15:50:30.984Z,32.10
2022-08-11T15:52:02.087Z,32.00
2022-08-11T15:53:10.853Z,31.70
2022-08-11T15:54:17.293Z,31.50
2022-08-11T15:55:19.919Z,31.40
2022-08-11T15:56:25.915Z,31.30
2022-08-11T15:57:47.615Z,31.30
2022-08-11T15:59:42.459Z,31.20
2022-08-11T16:00:59.126Z,31.10
2022-08-11T16:02:12.004Z,31.10
2022-08-11T16:04:05.647Z,31.00
2022-08-11T16:05:02.651Z,30.90
2022-08-11T16:06:06.175Z,30.80
2022-08-11T16:07:14.591Z,30.70
2022-08-11T16:08:25.283Z,30.70
2022-08-11T16:09:47.695Z,30.60
2022-08-11T16:10:53.017Z,30.70
2022-08-11T16:12:00.619Z,30.70
2022-08-11T16:13:05.502Z,30.60
2022-08-11T16:14:27.038Z,30.60
2022-08-11T16:15:50.559Z,30.50
2022-08-11T16:16:56.117Z,30.50
2022-08-11T16:18:04.996Z,30.50
2022-08-11T16:19:10.803Z,30.40
2022-08-11T16:20:14.673Z,30.40
2022-08-11T16:21:34.083Z,30.50
2022-08-11T16:22:41.609Z,30.50
2022-08-11T16:24:09.488Z,30.70
2022-08-11T16:27:02.257Z,30.60
2022-08-11T16:27:11.168Z,30.60
2022-08-11T16:28:16.952Z,30.60
2022-08-11T16:29:21.741Z,30.60
2022-08-11T16:30:27.241Z,30.50
2022-08-11T16:31:30.896Z,30.50
2022-08-11T16:32:34.458Z,30.40
2022-08-11T16:33:49.797Z,30.50
2022-08-11T16:35:19.447Z,30.50
2022-08-11T16:36:44.111Z,30.50
2022-08-11T16:38:05.229Z,30.50